Time;durP1;ratioP1;P1;durP2;ratioP2;P2;SDS_P1;SDS_P2;PMS_P1;PMS_P2;Temp;Humidity;BMP_temperature;BMP_pressure;BME280_temperature;BME280_humidity;BME280_pressure;Samples;Min_cycle;Max_cycle;Signal;HPM_P1;HPM_P2
2023/08/31 00:02:18;;;;;;;34.17;13.65;;;;;;;27.03;91.90;99836.63;4989627;28;20029;-84
2023/08/31 00:04:44;;;;;;;23.75;12.60;;;;;;;27.00;92.36;99829.66;4989272;28;20085;-81
2023/08/31 00:07:09;;;;;;;27.63;13.45;;;;;;;26.98;92.43;99826.31;4989741;28;20035;-84
2023/08/31 00:09:35;;;;;;;26.52;12.70;;;;;;;26.95;92.91;99823.22;4989629;28;20030;-84
2023/08/31 00:12:03;;;;;;;27.40;12.27;;;;;;;26.92;92.97;99830.09;5001239;28;20084;-85
2023/08/31 00:14:29;;;;;;;20.98;12.18;;;;;;;26.87;93.90;99824.50;4989870;28;20486;-84
2023/08/31 00:16:57;;;;;;;27.08;13.48;;;;;;;26.79;94.46;99808.28;4989957;28;20073;-84
2023/08/31 00:19:23;;;;;;;22.63;11.80;;;;;;;26.86;95.27;99821.97;4985269;28;20029;-84
2023/08/31 00:21:48;;;;;;;30.77;12.90;;;;;;;26.82;95.14;99837.34;4989230;28;20034;-85
2023/08/31 00:24:14;;;;;;;23.80;13.38;;;;;;;26.79;95.87;99824.84;4989560;28;20027;-82
2023/08/31 00:26:40;;;;;;;24.63;13.43;;;;;;;26.73;96.55;99825.84;4992000;28;20038;-84
2023/08/31 00:29:10;;;;;;;21.30;12.30;;;;;;;26.75;96.95;99840.25;5012635;28;20050;-77
2023/08/31 00:31:36;;;;;;;27.20;12.38;;;;;;;26.74;96.93;99827.53;4990260;28;20034;-82
2023/08/31 00:34:03;;;;;;;20.10;11.57;;;;;;;26.80;96.62;99837.59;4989098;28;20026;-86
2023/08/31 00:36:33;;;;;;;25.83;12.00;;;;;;;26.76;96.41;99830.03;4989428;28;20026;-84
2023/08/31 00:39:02;;;;;;;22.83;12.48;;;;;;;26.74;97.42;99832.22;4954573;28;20101;-85
2023/08/31 00:41:28;;;;;;;26.42;13.15;;;;;;;26.69;97.16;99819.19;4989641;28;20455;-86
2023/08/31 00:43:53;;;;;;;21.40;12.55;;;;;;;26.75;97.21;99834.72;4989379;28;20127;-84
2023/08/31 00:46:18;;;;;;;21.67;12.50;;;;;;;26.77;97.37;99834.47;4989860;28;20141;-79
2023/08/31 00:48:44;;;;;;;20.70;12.52;;;;;;;26.80;96.91;99843.13;4993107;28;20036;-85
2023/08/31 00:51:10;;;;;;;24.65;13.43;;;;;;;26.74;96.75;99829.44;4992465;28;20030;-82
2023/08/31 00:53:37;;;;;;;28.98;12.73;;;;;;;26.70;96.84;99823.59;4992413;28;20154;-82
2023/08/31 00:56:03;;;;;;;24.35;12.32;;;;;;;26.79;96.55;99840.56;4992279;28;20038;-80
2023/08/31 00:58:30;;;;;;;22.13;12.65;;;;;;;26.81;96.25;99844.81;4992305;28;20450;-84
2023/08/31 01:01:19;;;;;;;25.40;13.80;;;;;;;26.72;97.06;99834.41;4992245;28;20022;-83
2023/08/31 01:04:12;;;;;;;36.72;13.48;;;;;;;26.67;97.31;99854.44;4992433;28;20042;-85
2023/08/31 01:07:11;;;;;;;27.38;13.32;;;;;;;26.75;97.35;99859.56;4991722;28;20042;-85
2023/08/31 01:10:26;;;;;;;23.60;12.43;;;;;;;26.71;96.88;99866.66;4992435;28;20030;-84
2023/08/31 01:13:18;;;;;;;32.25;13.73;;;;;;;26.70;97.26;99862.22;4949193;28;20043;-84
2023/08/31 01:15:53;;;;;;;21.23;13.95;;;;;;;26.66;97.38;99868.50;4944037;28;20122;-83
2023/08/31 01:18:24;;;;;;;21.70;12.85;;;;;;;26.67;97.42;99853.59;4932153;29;20475;-80
2023/08/31 01:20:52;;;;;;;21.13;12.50;;;;;;;26.78;96.57;99864.59;4942097;28;20047;-86
2023/08/31 01:23:20;;;;;;;21.67;13.77;;;;;;;26.77;95.99;99870.34;4935138;28;20043;-84
2023/08/31 01:25:48;;;;;;;24.67;13.73;;;;;;;26.74;96.21;99871.69;4931393;29;20435;-85
2023/08/31 01:28:14;;;;;;;26.60;13.98;;;;;;;26.82;95.69;99874.06;4946632;28;20455;-85
2023/08/31 01:30:40;;;;;;;24.38;13.32;;;;;;;26.79;95.93;99868.16;4956855;28;20035;-84
2023/08/31 01:33:05;;;;;;;25.10;13.32;;;;;;;26.71;96.00;99869.41;4950822;28;20035;-85
2023/08/31 01:35:38;;;;;;;21.55;14.00;;;;;;;26.66;96.44;99874.84;4941516;28;20055;-83
2023/08/31 01:38:08;;;;;;;32.13;13.15;;;;;;;26.70;97.04;99875.16;4931718;29;20035;-82
2023/08/31 01:40:49;;;;;;;26.15;14.88;;;;;;;26.73;95.84;99883.78;4932871;29;20046;-82
2023/08/31 01:43:17;;;;;;;23.85;13.23;;;;;;;26.65;95.36;99886.97;4942639;28;20042;-83
2023/08/31 01:45:44;;;;;;;34.40;15.77;;;;;;;26.61;95.59;99898.72;4931929;29;20480;-85
2023/08/31 01:48:10;;;;;;;25.38;14.10;;;;;;;26.62;95.64;99895.72;4965720;28;20061;-82
2023/08/31 01:50:35;;;;;;;35.13;15.00;;;;;;;26.56;95.54;99888.44;4992137;28;20442;-85
2023/08/31 01:53:00;;;;;;;36.88;16.40;;;;;;;26.48;96.21;99894.38;4991569;28;20060;-81
2023/08/31 01:55:26;;;;;;;31.30;15.65;;;;;;;26.46;96.73;99900.13;4991518;28;20037;-84
2023/08/31 01:57:51;;;;;;;31.92;15.50;;;;;;;26.30;96.79;99875.22;4990895;28;20118;-84
2023/08/31 02:00:18;;;;;;;24.40;14.40;;;;;;;26.43;96.77;99888.72;4991256;28;20042;-83
2023/08/31 02:02:44;;;;;;;35.15;14.13;;;;;;;26.29;96.88;99863.38;4991576;28;20042;-83
2023/08/31 02:05:10;;;;;;;29.85;14.90;;;;;;;26.45;96.59;99892.91;4991442;28;20029;-83
2023/08/31 02:07:36;;;;;;;27.92;15.90;;;;;;;26.49;95.65;99896.03;4992065;28;20053;-84
2023/08/31 02:10:01;;;;;;;29.55;12.88;;;;;;;26.42;94.86;99879.63;4991769;28;20402;-83
2023/08/31 02:12:27;;;;;;;22.67;13.23;;;;;;;26.35;95.31;99872.59;5004554;28;20095;-83
2023/08/31 02:14:52;;;;;;;20.65;13.02;;;;;;;26.43;95.54;99897.00;5003588;28;20026;-84
2023/08/31 02:17:18;;;;;;;19.35;11.65;;;;;;;26.42;95.89;99895.34;4991583;28;20030;-83
2023/08/31 02:19:43;;;;;;;21.92;12.50;;;;;;;26.31;95.70;99876.91;4993879;28;20022;-82
2023/08/31 02:22:10;;;;;;;23.42;13.30;;;;;;;26.34;95.42;99887.44;4991746;28;20042;-82
2023/08/31 02:24:35;;;;;;;45.22;13.70;;;;;;;26.32;95.55;99895.97;4998677;28;20033;-83
2023/08/31 02:27:00;;;;;;;22.23;15.65;;;;;;;26.20;94.81;99875.03;5016765;28;20061;-77
2023/08/31 02:29:26;;;;;;;24.33;13.93;;;;;;;26.19;95.16;99885.22;5016626;28;20096;-81
2023/08/31 02:31:51;;;;;;;20.30;15.63;;;;;;;26.09;95.62;99867.59;4983253;28;20070;-84
2023/08/31 02:34:17;;;;;;;23.33;15.38;;;;;;;26.14;95.92;99882.34;5016950;28;20054;-81
2023/08/31 02:36:42;;;;;;;26.73;14.45;;;;;;;26.24;95.41;99903.78;5018176;28;20019;-84
2023/08/31 02:39:08;;;;;;;24.30;16.27;;;;;;;26.19;95.67;99898.16;5006040;28;20088;-86
2023/08/31 02:41:33;;;;;;;27.83;15.18;;;;;;;26.17;95.82;99892.06;4990736;28;20034;-84
2023/08/31 02:43:58;;;;;;;25.55;17.05;;;;;;;26.16;96.08;99907.78;4940143;28;20042;-81
2023/08/31 02:46:24;;;;;;;29.58;17.15;;;;;;;26.17;96.20;99909.47;4990673;28;20351;-82
2023/08/31 02:48:50;;;;;;;30.10;19.08;;;;;;;26.06;96.25;99879.09;4995285;28;20037;-79
2023/08/31 02:51:15;;;;;;;32.28;20.17;;;;;;;26.19;96.20;99898.16;4996069;28;20118;-84
2023/08/31 02:53:41;;;;;;;35.40;18.17;;;;;;;26.18;96.33;99904.75;4990203;28;20034;-83
2023/08/31 02:56:07;;;;;;;41.55;22.30;;;;;;;26.10;96.08;99899.59;4990566;28;20034;-84
2023/08/31 02:58:33;;;;;;;86.88;45.58;;;;;;;26.15;96.14;99906.09;4990305;28;20022;-84
2023/08/31 03:01:11;;;;;;;98.75;51.45;;;;;;;26.14;96.59;99912.66;4989714;28;20113;-85
2023/08/31 03:03:41;;;;;;;111.65;61.47;;;;;;;25.96;96.53;99893.53;4990217;28;20050;-82
2023/08/31 03:06:09;;;;;;;116.88;62.58;;;;;;;26.02;96.70;99914.63;4990047;28;20037;-84
2023/08/31 03:08:36;;;;;;;97.88;59.28;;;;;;;25.98;96.52;99911.50;4990081;28;20495;-84
2023/08/31 03:11:03;;;;;;;119.90;64.63;;;;;;;25.84;96.82;99904.56;4989456;28;21320;-83
2023/08/31 03:13:29;;;;;;;109.97;60.10;;;;;;;25.84;97.85;99907.31;4990106;28;20030;-85
2023/08/31 03:15:56;;;;;;;108.40;63.95;;;;;;;25.86;98.19;99904.31;4990065;28;20096;-86
2023/08/31 03:18:22;;;;;;;119.72;66.43;;;;;;;25.86;97.93;99916.19;4990495;28;20027;-84
2023/08/31 03:20:47;;;;;;;116.03;62.65;;;;;;;25.86;98.02;99913.44;4990302;28;20057;-83
2023/08/31 03:23:13;;;;;;;107.57;64.18;;;;;;;25.84;98.03;99907.31;4989967;28;20034;-85
2023/08/31 03:25:38;;;;;;;115.18;61.47;;;;;;;25.83;98.32;99910.31;4990008;28;20031;-82
2023/08/31 03:28:03;;;;;;;99.38;58.38;;;;;;;25.83;98.00;99918.59;4989367;28;20117;-85
2023/08/31 03:30:29;;;;;;;102.97;59.80;;;;;;;25.80;97.70;99913.56;4989814;28;20052;-83
2023/08/31 03:32:55;;;;;;;84.35;53.78;;;;;;;25.83;97.20;99919.44;4983952;28;20038;-87
2023/08/31 03:35:22;;;;;;;103.78;58.95;;;;;;;25.81;96.89;99928.97;4989805;28;20023;-87
2023/08/31 03:37:48;;;;;;;85.68;54.22;;;;;;;25.84;96.65;99934.84;4989560;28;20034;-86
2023/08/31 03:40:13;;;;;;;77.00;52.45;;;;;;;25.82;96.61;99931.50;4989727;28;20037;-86
2023/08/31 03:42:39;;;;;;;74.28;47.03;;;;;;;25.83;96.16;99913.06;4990233;28;20089;-87
2023/08/31 03:45:05;;;;;;;71.63;39.83;;;;;;;25.86;95.59;99918.94;4990813;28;20038;-90
2023/08/31 03:47:30;;;;;;;53.75;33.53;;;;;;;25.83;94.47;99924.94;5002771;28;20055;-84
2023/08/31 03:49:56;;;;;;;49.25;27.65;;;;;;;25.83;93.69;99930.44;4990270;28;20034;-88
2023/08/31 03:52:23;;;;;;;47.08;27.15;;;;;;;25.81;92.74;99932.59;4990191;28;20085;-89
2023/08/31 03:54:49;;;;;;;47.65;28.38;;;;;;;25.78;92.33;99933.06;4991113;28;20495;-90
2023/08/31 03:57:14;;;;;;;43.08;24.55;;;;;;;25.80;92.00;99941.94;5007362;28;20057;-82
2023/08/31 03:59:39;;;;;;;60.63;25.13;;;;;;;25.79;91.42;99929.25;5004598;28;20030;-91
2023/08/31 04:02:05;;;;;;;41.00;22.33;;;;;;;25.62;91.39;99909.03;4990955;28;20030;-85
2023/08/31 04:04:30;;;;;;;33.65;18.77;;;;;;;25.74;90.67;99937.41;4989966;28;20035;-89
2023/08/31 04:06:56;;;;;;;31.50;17.35;;;;;;;25.76;90.60;99940.75;4989915;28;20113;-87
2023/08/31 04:09:21;;;;;;;39.95;20.00;;;;;;;25.74;90.72;99953.09;4997845;28;20035;-81
2023/08/31 04:11:47;;;;;;;54.50;31.50;;;;;;;25.76;90.98;99957.28;4994943;28;20018;-86
2023/08/31 04:14:12;;;;;;;36.97;16.85;;;;;;;25.74;90.98;99948.41;4991078;28;20034;-86
2023/08/31 04:16:38;;;;;;;34.78;17.90;;;;;;;25.84;89.99;99959.66;4990021;28;20023;-87
2023/08/31 04:19:03;;;;;;;29.08;15.77;;;;;;;25.90;89.57;99980.72;4990390;28;20041;-88
2023/08/31 04:21:29;;;;;;;30.92;16.42;;;;;;;25.83;89.08;99977.28;4991542;28;20041;-84
2023/08/31 04:23:54;;;;;;;47.38;14.98;;;;;;;25.86;88.15;99990.59;4976557;28;20056;-89
2023/08/31 04:26:20;;;;;;;28.63;13.60;;;;;;;25.79;87.66;99987.09;4994973;28;20034;-91
2023/08/31 04:28:45;;;;;;;33.03;15.50;;;;;;;25.80;87.13;99994.28;4994284;28;20054;-87
2023/08/31 04:31:11;;;;;;;36.45;15.68;;;;;;;25.79;86.39;99995.38;4996714;28;20510;-87
2023/08/31 04:33:38;;;;;;;29.63;14.75;;;;;;;25.85;86.67;99999.06;4993687;28;20026;-81
2023/08/31 04:36:04;;;;;;;34.58;14.95;;;;;;;25.83;86.01;99996.56;4994647;28;20022;-87
2023/08/31 04:38:34;;;;;;;29.45;17.30;;;;;;;25.84;85.18;99997.41;4993107;28;20495;-86
2023/08/31 04:41:00;;;;;;;51.40;15.68;;;;;;;25.90;84.97;99996.47;4993132;28;20027;-85
2023/08/31 04:43:25;;;;;;;35.58;15.35;;;;;;;25.94;84.71;99998.47;4992744;28;20498;-85
2023/08/31 04:45:54;;;;;;;64.57;30.25;;;;;;;25.97;84.43;99998.00;4958129;28;20077;-84
2023/08/31 04:48:20;;;;;;;63.60;17.45;;;;;;;26.06;83.80;99997.63;4989462;28;20118;-87
2023/08/31 04:50:45;;;;;;;26.23;14.95;;;;;;;26.14;83.14;99986.25;4992933;28;20106;-82
2023/08/31 04:53:11;;;;;;;28.67;14.60;;;;;;;26.14;82.63;99983.50;4993213;28;20030;-87
2023/08/31 04:55:37;;;;;;;33.60;15.15;;;;;;;26.12;82.16;99988.38;4993606;28;20036;-85
2023/08/31 04:58:03;;;;;;;37.70;15.35;;;;;;;26.20;81.28;99988.06;4993397;28;20501;-83
2023/08/31 05:00:29;;;;;;;28.75;15.45;;;;;;;26.24;81.64;99994.75;4993538;28;20113;-86
2023/08/31 05:02:55;;;;;;;37.22;14.55;;;;;;;26.27;80.87;99999.78;4992851;28;20026;-86
2023/08/31 05:05:21;;;;;;;31.08;15.05;;;;;;;26.30;79.79;99993.78;4992818;28;20548;-80
2023/08/31 05:07:46;;;;;;;34.80;13.88;;;;;;;26.31;79.65;99995.47;4993039;28;20057;-83
2023/08/31 05:10:12;;;;;;;28.88;13.85;;;;;;;26.33;79.01;100001.56;4994414;28;20034;-80
2023/08/31 05:12:37;;;;;;;35.10;14.07;;;;;;;26.29;78.93;100003.16;4993846;28;20102;-88
2023/08/31 05:15:03;;;;;;;30.25;14.13;;;;;;;26.40;78.34;100016.06;4997237;28;20027;-87
2023/08/31 05:17:30;;;;;;;24.75;14.57;;;;;;;26.33;77.82;100021.72;4998227;28;20030;-87
2023/08/31 05:19:55;;;;;;;48.58;15.68;;;;;;;26.37;78.16;100008.28;4998219;28;20140;-88
2023/08/31 05:22:21;;;;;;;29.48;14.20;;;;;;;26.44;77.98;100009.00;4997668;28;20478;-91
2023/08/31 05:24:46;;;;;;;32.95;16.30;;;;;;;26.39;77.07;100006.16;4996087;28;20032;-90
2023/08/31 05:27:12;;;;;;;33.17;15.93;;;;;;;26.56;77.01;100020.84;4978591;28;20026;-85
2023/08/31 05:32:08;;;;;;;36.67;15.00;;;;;;;26.60;75.66;100008.25;4973389;28;20542;-91
2023/08/31 05:34:37;;;;;;;32.20;14.02;;;;;;;26.65;75.78;100011.09;4973747;28;20026;-92
2023/08/31 05:37:04;;;;;;;27.15;13.50;;;;;;;26.48;75.96;99982.63;4976016;28;20113;-91
2023/08/31 05:39:30;;;;;;;29.80;13.73;;;;;;;26.76;76.01;100017.66;4976499;28;20468;-86
2023/08/31 05:41:56;;;;;;;26.00;13.25;;;;;;;26.83;75.64;100018.41;4990388;28;20031;-84
2023/08/31 05:44:22;;;;;;;33.20;13.68;;;;;;;26.87;75.44;100014.06;4990719;28;20041;-89
2023/08/31 05:46:47;;;;;;;24.10;12.20;;;;;;;26.82;75.23;99995.47;4986289;28;20027;-87
2023/08/31 05:49:13;;;;;;;31.75;12.65;;;;;;;26.89;74.88;99995.34;4960468;28;20137;-91
2023/08/31 05:51:38;;;;;;;33.35;14.18;;;;;;;27.04;74.71;100026.00;4975869;28;20105;-92
2023/08/31 05:54:03;;;;;;;27.33;15.80;;;;;;;26.99;75.05;100026.75;4977105;28;20583;-91
2023/08/31 05:56:29;;;;;;;51.42;17.70;;;;;;;26.85;75.00;100006.03;4978364;28;20029;-91
2023/08/31 05:58:55;;;;;;;34.95;16.38;;;;;;;27.07;74.87;100021.88;4976934;28;20115;-93
2023/08/31 06:01:22;;;;;;;40.28;15.35;;;;;;;27.04;75.13;100015.78;4975455;28;20038;-91
2023/08/31 06:03:48;;;;;;;30.50;13.75;;;;;;;27.06;74.03;100023.84;4975185;28;20081;-91
2023/08/31 06:06:14;;;;;;;30.60;12.30;;;;;;;27.08;73.87;100016.13;4973932;28;20062;-92
2023/08/31 06:08:39;;;;;;;67.45;14.35;;;;;;;27.19;74.01;100033.72;4974845;28;20106;-90
2023/08/31 06:11:05;;;;;;;29.30;11.68;;;;;;;27.18;74.13;100037.59;4957604;28;20031;-92
2023/08/31 06:13:31;;;;;;;32.08;13.38;;;;;;;27.07;74.13;100019.13;4973293;28;20062;-91
2023/08/31 06:15:57;;;;;;;32.35;12.38;;;;;;;27.27;74.33;100047.16;4972776;28;20023;-91
2023/08/31 06:18:23;;;;;;;36.05;12.45;;;;;;;27.31;74.37;100051.06;4972916;28;20041;-89
2023/08/31 06:20:51;;;;;;;38.00;13.55;;;;;;;27.34;73.84;100053.31;4971971;28;20026;-93
2023/08/31 06:23:17;;;;;;;27.40;12.77;;;;;;;27.42;74.06;100064.00;4972546;28;20031;-91
2023/08/31 06:25:45;;;;;;;27.88;13.20;;;;;;;27.45;73.43;100074.59;4972404;28;20111;-93
2023/08/31 06:28:11;;;;;;;40.55;12.88;;;;;;;27.51;73.50;100073.59;4937617;28;20037;-92
2023/08/31 06:30:36;;;;;;;30.50;12.93;;;;;;;27.55;73.49;100077.53;4971752;28;20058;-92
2023/08/31 06:33:02;;;;;;;33.80;13.70;;;;;;;27.51;72.96;100070.81;4971991;28;20058;-91
2023/08/31 06:35:28;;;;;;;44.03;13.48;;;;;;;27.62;72.70;100080.97;4954569;28;20049;-86
2023/08/31 06:37:55;;;;;;;27.02;13.25;;;;;;;27.66;73.05;100079.38;4972631;28;20121;-90
2023/08/31 06:40:21;;;;;;;35.20;13.88;;;;;;;27.71;73.21;100075.84;4972420;28;20027;-90
2023/08/31 06:42:46;;;;;;;98.45;22.35;;;;;;;27.80;73.16;100080.72;4972815;28;20034;-92
2023/08/31 06:45:12;;;;;;;27.73;13.30;;;;;;;27.89;73.15;100073.69;4954779;28;20054;-91
2023/08/31 06:47:37;;;;;;;35.10;15.05;;;;;;;27.95;73.08;100071.88;4974119;28;20023;-92
2023/08/31 06:50:03;;;;;;;30.77;14.30;;;;;;;27.95;73.05;100072.69;4986829;28;20117;-87
2023/08/31 06:52:30;;;;;;;49.33;15.70;;;;;;;28.09;72.91;100073.22;4973690;28;20106;-92
2023/08/31 06:54:56;;;;;;;30.15;17.10;;;;;;;28.04;72.83;100054.63;4972305;28;20026;-89
2023/08/31 06:57:26;;;;;;;31.15;14.60;;;;;;;28.28;72.67;100082.09;4973164;28;20027;-89
2023/08/31 06:59:52;;;;;;;33.22;15.32;;;;;;;28.36;72.52;100084.41;4972868;28;20023;-91
2023/08/31 07:02:24;;;;;;;33.22;15.60;;;;;;;28.39;71.58;100083.91;4972836;28;20034;-89
2023/08/31 07:04:52;;;;;;;34.40;14.77;;;;;;;28.43;71.52;100085.09;4972067;28;20034;-90
2023/08/31 07:07:17;;;;;;;36.35;15.60;;;;;;;28.48;71.09;100085.16;4972118;28;20500;-93
2023/08/31 07:09:44;;;;;;;27.63;13.55;;;;;;;28.55;70.84;100083.88;4972996;28;20046;-88
2023/08/31 07:12:10;;;;;;;31.15;13.82;;;;;;;28.58;70.48;100077.00;4977262;28;20030;-86
2023/08/31 07:14:35;;;;;;;30.65;14.20;;;;;;;28.69;69.63;100083.53;4995834;28;20045;-82
2023/08/31 07:17:01;;;;;;;27.23;14.80;;;;;;;28.80;69.24;100086.19;4995653;28;20108;-87
2023/08/31 07:19:26;;;;;;;31.92;13.60;;;;;;;28.86;68.23;100090.72;4995836;28;20042;-82
2023/08/31 07:21:54;;;;;;;28.80;12.98;;;;;;;28.88;67.58;100082.97;4997318;28;20047;-86
2023/08/31 07:24:21;;;;;;;32.28;14.48;;;;;;;28.93;67.17;100088.56;4988997;28;20284;-91
2023/08/31 07:26:46;;;;;;;26.33;12.70;;;;;;;29.01;66.19;100101.13;4993166;28;20034;-89
2023/08/31 07:29:11;;;;;;;25.23;12.98;;;;;;;28.99;66.11;100081.19;4990802;28;20422;-91
2023/08/31 07:31:37;;;;;;;34.10;13.35;;;;;;;29.18;65.90;100091.66;4972202;28;20066;-90
2023/08/31 07:34:03;;;;;;;29.70;14.00;;;;;;;29.32;65.33;100105.13;4973101;28;20031;-89
2023/08/31 07:36:28;;;;;;;26.38;12.20;;;;;;;29.40;64.24;100102.72;4973036;28;20065;-91
2023/08/31 07:38:54;;;;;;;24.65;12.70;;;;;;;29.44;63.79;100094.75;4972532;28;20023;-89
2023/08/31 07:41:19;;;;;;;27.10;11.27;;;;;;;29.52;63.38;100099.78;4973480;28;20039;-91
2023/08/31 07:43:45;;;;;;;28.95;10.82;;;;;;;29.54;63.12;100100.41;4986319;28;20030;-84
2023/08/31 07:46:10;;;;;;;23.33;10.57;;;;;;;29.68;62.70;100094.16;4978227;28;20121;-92
2023/08/31 07:48:35;;;;;;;68.22;16.30;;;;;;;29.73;61.82;100093.34;4972337;28;20034;-91
2023/08/31 07:51:01;;;;;;;23.13;11.20;;;;;;;29.75;61.79;100093.09;4972758;28;20030;-93
2023/08/31 07:53:26;;;;;;;32.47;12.75;;;;;;;29.94;61.33;100100.78;4978239;28;20030;-91
2023/08/31 07:55:59;;;;;;;32.78;11.30;;;;;;;30.07;60.81;100092.03;4954781;28;20064;-89
2023/08/31 07:58:26;;;;;;;23.63;11.10;;;;;;;30.08;60.42;100071.50;4975682;28;20062;-90
2023/08/31 08:00:55;;;;;;;27.27;11.30;;;;;;;30.24;59.26;100084.38;4974711;28;20081;-88
2023/08/31 08:03:21;;;;;;;18.75;9.73;;;;;;;30.30;59.32;100073.31;4974979;28;20089;-91
2023/08/31 08:05:46;;;;;;;24.35;11.95;;;;;;;30.41;58.69;100086.19;4974874;28;20034;-91
2023/08/31 08:08:12;;;;;;;25.13;10.10;;;;;;;30.47;58.16;100085.13;4958548;28;20022;-92
2023/08/31 08:10:37;;;;;;;24.50;10.52;;;;;;;30.60;57.93;100095.75;4985246;28;20027;-91
2023/08/31 08:13:03;;;;;;;25.52;11.43;;;;;;;30.71;57.21;100086.38;4975824;28;20093;-89
2023/08/31 08:15:32;;;;;;;24.92;10.35;;;;;;;30.71;56.49;100080.81;4957737;28;20041;-92
2023/08/31 08:17:57;;;;;;;39.00;12.13;;;;;;;30.77;56.17;100085.28;4975192;28;20058;-92
2023/08/31 08:20:23;;;;;;;17.45;8.25;;;;;;;30.67;55.63;100071.38;4974769;28;20073;-91
2023/08/31 08:22:52;;;;;;;24.20;8.95;;;;;;;30.83;55.13;100084.19;4978240;28;20027;-90
2023/08/31 08:25:19;;;;;;;20.77;9.73;;;;;;;30.69;55.17;100041.38;4976722;28;20030;-91
2023/08/31 08:27:45;;;;;;;17.30;8.95;;;;;;;31.03;54.54;100073.22;4973219;28;20073;-92
2023/08/31 08:30:10;;;;;;;24.05;9.93;;;;;;;31.10;54.09;100065.44;4974987;28;20150;-89
2023/08/31 08:32:36;;;;;;;15.85;7.88;;;;;;;31.16;53.70;100078.25;4974977;28;20606;-91
2023/08/31 08:35:02;;;;;;;22.80;9.10;;;;;;;31.20;53.55;100073.81;4974709;28;20033;-91
2023/08/31 08:37:29;;;;;;;22.67;9.10;;;;;;;31.40;52.91;100073.06;4975018;28;20514;-92
2023/08/31 08:39:54;;;;;;;14.70;9.35;;;;;;;31.51;52.24;100062.81;4974893;28;20113;-91
2023/08/31 08:42:24;;;;;;;24.55;8.95;;;;;;;31.75;51.54;100077.84;4974789;28;20081;-91
2023/08/31 08:44:50;;;;;;;21.85;8.68;;;;;;;31.67;50.64;100067.28;4974165;28;20034;-92
2023/08/31 08:47:16;;;;;;;16.67;8.88;;;;;;;31.68;50.50;100074.53;4974062;28;20049;-90
2023/08/31 08:49:42;;;;;;;14.35;8.25;;;;;;;31.83;50.14;100077.31;4975004;28;20105;-92
2023/08/31 08:52:09;;;;;;;14.88;9.27;;;;;;;31.90;49.07;100071.44;4976381;28;20023;-92
2023/08/31 08:54:35;;;;;;;25.05;8.80;;;;;;;31.89;48.91;100076.19;4975591;28;20038;-91
2023/08/31 08:57:00;;;;;;;21.33;8.90;;;;;;;31.99;48.64;100078.13;4975939;28;20494;-91
2023/08/31 08:59:27;;;;;;;19.05;8.43;;;;;;;32.06;47.95;100082.34;4973411;28;20023;-83
2023/08/31 09:01:52;;;;;;;19.48;7.75;;;;;;;32.05;47.90;100075.09;4973890;28;20057;-82
2023/08/31 09:04:19;;;;;;;13.32;6.95;;;;;;;32.05;47.06;100061.19;4973360;28;20480;-78
2023/08/31 09:06:44;;;;;;;13.30;7.05;;;;;;;32.29;46.30;100081.75;4973736;28;20117;-84
2023/08/31 09:09:10;;;;;;;12.52;7.18;;;;;;;32.42;46.53;100074.75;4984290;28;20046;-83
2023/08/31 09:11:36;;;;;;;13.38;7.47;;;;;;;32.50;45.42;100070.59;4981818;28;20050;-83
2023/08/31 09:14:19;;;;;;;16.50;7.45;;;;;;;32.46;44.55;100077.81;4974082;28;20150;-86
2023/08/31 09:16:46;;;;;;;10.77;5.85;;;;;;;32.50;43.38;100085.34;4972762;28;20030;-81
2023/08/31 09:19:27;;;;;;;18.67;7.57;;;;;;;32.50;43.00;100082.56;4973039;28;20031;-83
2023/08/31 09:21:55;;;;;;;39.20;10.25;;;;;;;32.53;43.09;100070.03;4973027;28;20031;-80
2023/08/31 09:24:22;;;;;;;22.10;8.90;;;;;;;32.71;43.11;100084.22;4955443;28;20491;-83
2023/08/31 09:26:57;;;;;;;19.27;7.05;;;;;;;32.79;42.82;100085.56;4972349;28;20026;-83
2023/08/31 09:29:23;;;;;;;17.42;6.45;;;;;;;32.85;42.88;100076.06;4973691;28;20053;-80
2023/08/31 09:31:49;;;;;;;25.10;7.38;;;;;;;32.95;43.07;100083.56;4973650;28;20058;-82
2023/08/31 09:34:15;;;;;;;11.98;6.63;;;;;;;33.03;42.21;100086.56;4973187;28;20034;-82
2023/08/31 09:36:41;;;;;;;12.43;5.70;;;;;;;33.10;41.56;100084.34;4972785;28;20046;-84
2023/08/31 09:39:09;;;;;;;14.32;6.72;;;;;;;33.05;41.65;100067.63;4972765;28;20027;-81
2023/08/31 09:41:34;;;;;;;11.13;5.63;;;;;;;33.14;41.31;100087.41;4972342;28;20075;-82
2023/08/31 09:44:16;;;;;;;16.00;7.13;;;;;;;33.22;41.01;100084.00;4972655;28;20041;-83
2023/08/31 09:46:43;;;;;;;12.15;5.43;;;;;;;33.21;37.80;100088.75;4954251;28;20050;-84
2023/08/31 09:49:11;;;;;;;13.82;6.07;;;;;;;33.21;37.83;100083.16;4971917;28;20101;-82
2023/08/31 09:51:41;;;;;;;13.00;5.68;;;;;;;33.25;36.91;100073.13;4972129;28;20503;-84
2023/08/31 09:54:08;;;;;;;10.27;5.30;;;;;;;33.40;36.63;100092.53;4971868;28;20511;-84
2023/08/31 09:56:35;;;;;;;10.80;5.88;;;;;;;33.39;36.97;100071.34;4971830;28;20031;-83
2023/08/31 09:59:00;;;;;;;8.57;5.85;;;;;;;33.58;37.11;100087.41;4972059;28;20050;-81
2023/08/31 10:01:26;;;;;;;20.52;6.32;;;;;;;33.64;36.76;100091.88;4953473;28;20519;-83
2023/08/31 10:03:52;;;;;;;12.80;5.75;;;;;;;33.61;36.35;100072.94;4971756;28;20019;-84
2023/08/31 10:06:18;;;;;;;9.50;5.93;;;;;;;33.73;34.78;100093.75;4971897;28;20034;-83
2023/08/31 10:08:44;;;;;;;9.00;6.07;;;;;;;33.79;35.73;100089.00;4971565;28;20038;-81
2023/08/31 10:11:13;;;;;;;14.13;5.20;;;;;;;33.73;34.84;100067.84;4971859;28;20399;-83
2023/08/31 10:13:41;;;;;;;8.32;5.40;;;;;;;33.99;34.11;100099.13;4971369;28;20041;-82
2023/08/31 10:16:06;;;;;;;11.10;5.82;;;;;;;34.20;34.15;100083.91;4972112;28;20133;-84
2023/08/31 10:18:34;;;;;;;33.90;7.32;;;;;;;34.30;34.45;100083.81;4974258;28;20400;-83
2023/08/31 10:21:02;;;;;;;9.73;5.47;;;;;;;34.47;34.25;100084.19;4978408;28;20027;-84
2023/08/31 10:23:28;;;;;;;12.95;5.68;;;;;;;34.68;33.61;100085.66;4978406;28;20479;-83
2023/08/31 10:25:53;;;;;;;13.93;4.93;;;;;;;34.87;32.88;100094.09;4973650;28;20027;-81
2023/08/31 10:28:21;;;;;;;11.10;5.80;;;;;;;34.93;32.48;100078.94;4958528;28;20038;-81
2023/08/31 10:31:04;;;;;;;13.43;6.35;;;;;;;35.03;32.39;100087.22;4971628;28;20055;-84
2023/08/31 10:33:45;;;;;;;21.42;6.03;;;;;;;35.11;32.18;100094.94;4971712;28;20057;-81
2023/08/31 10:36:20;;;;;;;18.13;5.55;;;;;;;35.14;30.89;100102.75;4974222;28;20104;-84
2023/08/31 10:38:58;;;;;;;15.95;5.53;;;;;;;35.28;31.32;100106.47;4958396;28;20057;-83
2023/08/31 10:41:24;;;;;;;7.25;5.07;;;;;;;35.32;31.03;100087.13;4972514;28;20038;-83
2023/08/31 10:43:57;;;;;;;10.35;5.70;;;;;;;35.60;30.89;100093.72;4954755;28;20070;-83
2023/08/31 10:46:38;;;;;;;7.85;4.97;;;;;;;35.94;31.30;100097.09;4972050;28;20054;-84
2023/08/31 10:49:09;;;;;;;6.25;5.22;;;;;;;35.81;30.84;100075.50;4974901;28;20045;-82
2023/08/31 10:51:36;;;;;;;9.02;5.47;;;;;;;35.66;32.01;100084.13;4985747;28;20058;-85
2023/08/31 10:54:07;;;;;;;16.55;7.30;;;;;;;35.71;34.78;100109.25;4973535;28;20106;-81
2023/08/31 10:56:32;;;;;;;22.58;7.25;;;;;;;35.60;32.65;100096.53;4937066;28;20047;-84
2023/08/31 10:58:59;;;;;;;19.73;10.60;;;;;;;35.53;41.49;100086.50;4952912;28;20031;-79
2023/08/31 11:01:56;;;;;;;19.27;9.98;;;;;;;35.14;45.78;100091.56;4970519;28;20039;-84
2023/08/31 11:04:23;;;;;;;27.67;11.70;;;;;;;34.82;47.22;100103.41;4966614;28;20144;-83
2023/08/31 11:06:48;;;;;;;30.05;12.02;;;;;;;34.11;49.78;100103.25;4970172;28;20138;-82
2023/08/31 11:09:21;;;;;;;28.92;11.60;;;;;;;33.79;50.82;100094.56;4970056;28;20038;-82
2023/08/31 11:11:48;;;;;;;34.97;14.90;;;;;;;33.79;50.21;100084.22;4969609;28;20031;-80
2023/08/31 11:14:14;;;;;;;25.95;11.70;;;;;;;33.75;50.64;100105.47;4970078;28;20482;-82
2023/08/31 11:16:40;;;;;;;24.73;11.70;;;;;;;33.19;53.09;100093.78;4970319;28;20042;-84
2023/08/31 11:19:05;;;;;;;29.83;12.30;;;;;;;33.22;53.72;100106.31;4971136;28;20493;-81